sensor_id;sensor_type;location;lat;lon;timestamp;temperature;humidity
15906;DHT22;8051;50.820;4.884;2023-06-10T00:02:07;20.90;99.90
15906;DHT22;8051;50.820;4.884;2023-06-10T00:04:34;20.90;99.90
15906;DHT22;8051;50.820;4.884;2023-06-10T00:07:03;20.90;99.90
15906;DHT22;8051;50.820;4.884;2023-06-10T00:09:34;20.80;99.90
15906;DHT22;8051;50.820;4.884;2023-06-10T00:12:03;20.80;99.90
15906;DHT22;8051;50.820;4.884;2023-06-10T00:14:30;20.80;99.90
15906;DHT22;8051;50.820;4.884;2023-06-10T00:16:58;20.80;99.90
15906;DHT22;8051;50.820;4.884;2023-06-10T00:19:27;20.80;99.90
15906;DHT22;8051;50.820;4.884;2023-06-10T00:21:56;20.80;99.90
15906;DHT22;8051;50.820;4.884;2023-06-10T00:24:24;20.70;99.90
15906;DHT22;8051;50.820;4.884;2023-06-10T00:26:51;20.70;99.90
15906;DHT22;8051;50.820;4.884;2023-06-10T00:29:19;20.60;99.90
15906;DHT22;8051;50.820;4.884;2023-06-10T00:31:47;20.60;99.90
15906;DHT22;8051;50.820;4.884;2023-06-10T00:34:14;20.60;99.90
15906;DHT22;8051;50.820;4.884;2023-06-10T00:36:43;20.60;99.90
15906;DHT22;8051;50.820;4.884;2023-06-10T00:39:11;20.50;99.90
15906;DHT22;8051;50.820;4.884;2023-06-10T00:41:38;20.50;99.90
15906;DHT22;8051;50.820;4.884;2023-06-10T00:44:06;20.50;99.90
15906;DHT22;8051;50.820;4.884;2023-06-10T00:46:34;20.50;99.90
15906;DHT22;8051;50.820;4.884;2023-06-10T00:49:03;20.50;99.90
15906;DHT22;8051;50.820;4.884;2023-06-10T00:51:31;20.50;99.90
15906;DHT22;8051;50.820;4.884;2023-06-10T00:54:00;20.40;99.90
15906;DHT22;8051;50.820;4.884;2023-06-10T00:56:27;20.40;99.90
15906;DHT22;8051;50.820;4.884;2023-06-10T00:58:56;20.40;99.90
15906;DHT22;8051;50.820;4.884;2023-06-10T01:01:24;20.40;99.90
15906;DHT22;8051;50.820;4.884;2023-06-10T01:03:52;20.30;99.90
15906;DHT22;8051;50.820;4.884;2023-06-10T01:06:26;20.30;99.90
15906;DHT22;8051;50.820;4.884;2023-06-10T01:09:06;20.30;99.90
15906;DHT22;8051;50.820;4.884;2023-06-10T01:11:49;20.20;99.90
15906;DHT22;8051;50.820;4.884;2023-06-10T01:14:19;20.20;99.90
15906;DHT22;8051;50.820;4.884;2023-06-10T01:16:46;20.10;99.90
15906;DHT22;8051;50.820;4.884;2023-06-10T01:19:14;20.10;99.90
15906;DHT22;8051;50.820;4.884;2023-06-10T01:21:45;20.00;99.90
15906;DHT22;8051;50.820;4.884;2023-06-10T01:24:14;20.00;99.90
15906;DHT22;8051;50.820;4.884;2023-06-10T01:26:45;19.90;99.90
15906;DHT22;8051;50.820;4.884;2023-06-10T01:29:18;19.90;99.90
15906;DHT22;8051;50.820;4.884;2023-06-10T01:31:49;19.80;99.90
15906;DHT22;8051;50.820;4.884;2023-06-10T01:34:18;19.70;99.90
15906;DHT22;8051;50.820;4.884;2023-06-10T01:36:49;19.60;99.90
15906;DHT22;8051;50.820;4.884;2023-06-10T01:39:19;19.50;99.90
15906;DHT22;8051;50.820;4.884;2023-06-10T01:41:48;19.50;99.90
15906;DHT22;8051;50.820;4.884;2023-06-10T01:44:18;19.40;99.90
15906;DHT22;8051;50.820;4.884;2023-06-10T01:46:46;19.40;99.90
15906;DHT22;8051;50.820;4.884;2023-06-10T01:49:14;19.30;99.90
15906;DHT22;8051;50.820;4.884;2023-06-10T01:51:41;19.30;99.90
15906;DHT22;8051;50.820;4.884;2023-06-10T01:54:10;19.20;99.90
15906;DHT22;8051;50.820;4.884;2023-06-10T01:56:37;19.20;99.90
15906;DHT22;8051;50.820;4.884;2023-06-10T01:59:05;19.20;99.90
15906;DHT22;8051;50.820;4.884;2023-06-10T02:01:33;19.20;99.90
15906;DHT22;8051;50.820;4.884;2023-06-10T02:04:00;19.10;99.90
15906;DHT22;8051;50.820;4.884;2023-06-10T02:06:28;19.00;99.90
15906;DHT22;8051;50.820;4.884;2023-06-10T02:08:55;19.00;99.90
15906;DHT22;8051;50.820;4.884;2023-06-10T02:11:24;19.00;99.90
15906;DHT22;8051;50.820;4.884;2023-06-10T02:13:52;18.90;99.90
15906;DHT22;8051;50.820;4.884;2023-06-10T02:16:20;18.90;99.90
15906;DHT22;8051;50.820;4.884;2023-06-10T02:18:47;18.80;99.90
15906;DHT22;8051;50.820;4.884;2023-06-10T02:21:15;18.70;99.90
15906;DHT22;8051;50.820;4.884;2023-06-10T02:23:43;18.70;99.90
15906;DHT22;8051;50.820;4.884;2023-06-10T02:26:10;18.70;99.90
15906;DHT22;8051;50.820;4.884;2023-06-10T02:28:42;18.60;99.90
15906;DHT22;8051;50.820;4.884;2023-06-10T02:31:10;18.50;99.90
15906;DHT22;8051;50.820;4.884;2023-06-10T02:33:37;18.50;99.90
15906;DHT22;8051;50.820;4.884;2023-06-10T02:36:07;18.40;99.90
15906;DHT22;8051;50.820;4.884;2023-06-10T02:38:39;18.40;99.90
15906;DHT22;8051;50.820;4.884;2023-06-10T02:41:06;18.30;99.90
15906;DHT22;8051;50.820;4.884;2023-06-10T02:43:34;18.30;99.90
15906;DHT22;8051;50.820;4.884;2023-06-10T02:46:03;18.20;99.90
15906;DHT22;8051;50.820;4.884;2023-06-10T02:48:30;18.20;99.90
15906;DHT22;8051;50.820;4.884;2023-06-10T02:50:57;18.20;99.90
15906;DHT22;8051;50.820;4.884;2023-06-10T02:53:25;18.20;99.90
15906;DHT22;8051;50.820;4.884;2023-06-10T02:55:53;18.10;99.90
15906;DHT22;8051;50.820;4.884;2023-06-10T02:58:20;18.00;99.90
15906;DHT22;8051;50.820;4.884;2023-06-10T03:00:48;18.00;99.90
15906;DHT22;8051;50.820;4.884;2023-06-10T03:03:17;18.00;99.90
15906;DHT22;8051;50.820;4.884;2023-06-10T03:05:44;17.90;99.90
15906;DHT22;8051;50.820;4.884;2023-06-10T03:08:12;17.90;99.90
15906;DHT22;8051;50.820;4.884;2023-06-10T03:10:39;17.90;99.90
15906;DHT22;8051;50.820;4.884;2023-06-10T03:13:07;17.90;99.90
15906;DHT22;8051;50.820;4.884;2023-06-10T03:15:35;17.80;99.90
15906;DHT22;8051;50.820;4.884;2023-06-10T03:18:03;17.80;99.90
15906;DHT22;8051;50.820;4.884;2023-06-10T03:20:34;17.80;99.90
15906;DHT22;8051;50.820;4.884;2023-06-10T03:23:04;17.70;99.90
15906;DHT22;8051;50.820;4.884;2023-06-10T03:25:33;17.70;99.90
15906;DHT22;8051;50.820;4.884;2023-06-10T03:28:00;17.70;99.90
15906;DHT22;8051;50.820;4.884;2023-06-10T03:30:28;17.70;99.90
15906;DHT22;8051;50.820;4.884;2023-06-10T03:32:55;17.60;99.90
15906;DHT22;8051;50.820;4.884;2023-06-10T03:35:23;17.60;99.90
15906;DHT22;8051;50.820;4.884;2023-06-10T03:37:52;17.60;99.90
15906;DHT22;8051;50.820;4.884;2023-06-10T03:40:19;17.60;99.90
15906;DHT22;8051;50.820;4.884;2023-06-10T03:42:47;17.70;99.90
15906;DHT22;8051;50.820;4.884;2023-06-10T03:45:14;17.70;99.90
15906;DHT22;8051;50.820;4.884;2023-06-10T03:47:42;17.70;99.90
15906;DHT22;8051;50.820;4.884;2023-06-10T03:50:10;17.70;99.90
15906;DHT22;8051;50.820;4.884;2023-06-10T03:52:38;17.70;99.90
15906;DHT22;8051;50.820;4.884;2023-06-10T03:55:09;17.70;99.90
15906;DHT22;8051;50.820;4.884;2023-06-10T03:57:37;17.80;99.90
15906;DHT22;8051;50.820;4.884;2023-06-10T04:00:06;17.80;99.90
15906;DHT22;8051;50.820;4.884;2023-06-10T04:02:37;17.80;99.90
15906;DHT22;8051;50.820;4.884;2023-06-10T04:05:08;17.90;99.90
15906;DHT22;8051;50.820;4.884;2023-06-10T04:07:35;18.00;99.90
15906;DHT22;8051;50.820;4.884;2023-06-10T04:10:03;18.10;99.90
15906;DHT22;8051;50.820;4.884;2023-06-10T04:12:32;18.30;99.90
15906;DHT22;8051;50.820;4.884;2023-06-10T04:15:00;18.60;99.90
15906;DHT22;8051;50.820;4.884;2023-06-10T04:17:27;18.80;99.90
15906;DHT22;8051;50.820;4.884;2023-06-10T04:19:55;19.00;99.90
15906;DHT22;8051;50.820;4.884;2023-06-10T04:22:22;19.30;99.90
15906;DHT22;8051;50.820;4.884;2023-06-10T04:24:50;19.50;99.90
15906;DHT22;8051;50.820;4.884;2023-06-10T04:27:18;19.80;99.90
15906;DHT22;8051;50.820;4.884;2023-06-10T04:29:47;20.20;99.90
15906;DHT22;8051;50.820;4.884;2023-06-10T04:32:14;20.30;99.90
15906;DHT22;8051;50.820;4.884;2023-06-10T04:34:42;20.50;99.90
15906;DHT22;8051;50.820;4.884;2023-06-10T04:37:09;20.80;99.90
15906;DHT22;8051;50.820;4.884;2023-06-10T04:39:37;21.10;99.90
15906;DHT22;8051;50.820;4.884;2023-06-10T04:42:05;21.20;99.90
15906;DHT22;8051;50.820;4.884;2023-06-10T04:44:33;21.40;99.90
15906;DHT22;8051;50.820;4.884;2023-06-10T04:47:02;21.50;99.90
15906;DHT22;8051;50.820;4.884;2023-06-10T04:49:29;21.80;99.90
15906;DHT22;8051;50.820;4.884;2023-06-10T04:51:57;21.80;99.90
15906;DHT22;8051;50.820;4.884;2023-06-10T04:54:25;22.00;99.90
15906;DHT22;8051;50.820;4.884;2023-06-10T04:56:53;22.10;99.90
15906;DHT22;8051;50.820;4.884;2023-06-10T04:59:21;22.20;99.90
15906;DHT22;8051;50.820;4.884;2023-06-10T05:01:48;22.10;99.90
15906;DHT22;8051;50.820;4.884;2023-06-10T05:04:17;22.10;99.90
15906;DHT22;8051;50.820;4.884;2023-06-10T05:06:45;22.10;99.90
15906;DHT22;8051;50.820;4.884;2023-06-10T05:09:12;22.00;99.90
15906;DHT22;8051;50.820;4.884;2023-06-10T05:11:40;22.00;99.90
15906;DHT22;8051;50.820;4.884;2023-06-10T05:14:07;22.10;99.90
15906;DHT22;8051;50.820;4.884;2023-06-10T05:16:35;22.10;99.90
15906;DHT22;8051;50.820;4.884;2023-06-10T05:19:02;22.40;99.90
15906;DHT22;8051;50.820;4.884;2023-06-10T05:21:31;22.60;99.90
15906;DHT22;8051;50.820;4.884;2023-06-10T05:23:58;22.60;99.90
15906;DHT22;8051;50.820;4.884;2023-06-10T05:26:26;22.70;99.90
15906;DHT22;8051;50.820;4.884;2023-06-10T05:28:54;22.90;99.90
15906;DHT22;8051;50.820;4.884;2023-06-10T05:31:22;23.00;99.90
15906;DHT22;8051;50.820;4.884;2023-06-10T05:33:49;23.20;99.90
15906;DHT22;8051;50.820;4.884;2023-06-10T05:36:17;23.30;99.90
15906;DHT22;8051;50.820;4.884;2023-06-10T05:38:46;23.60;99.90
15906;DHT22;8051;50.820;4.884;2023-06-10T05:41:14;23.60;99.90
15906;DHT22;8051;50.820;4.884;2023-06-10T05:43:41;23.80;99.90
15906;DHT22;8051;50.820;4.884;2023-06-10T05:46:09;23.80;99.90
15906;DHT22;8051;50.820;4.884;2023-06-10T05:48:36;23.80;99.90
15906;DHT22;8051;50.820;4.884;2023-06-10T05:51:04;23.60;99.90
15906;DHT22;8051;50.820;4.884;2023-06-10T05:53:31;23.50;99.90
15906;DHT22;8051;50.820;4.884;2023-06-10T05:56:00;23.40;99.90
15906;DHT22;8051;50.820;4.884;2023-06-10T05:58:28;23.10;99.90
15906;DHT22;8051;50.820;4.884;2023-06-10T06:00:55;22.90;99.90
15906;DHT22;8051;50.820;4.884;2023-06-10T06:03:23;22.80;99.90
15906;DHT22;8051;50.820;4.884;2023-06-10T06:05:50;22.70;99.90
15906;DHT22;8051;50.820;4.884;2023-06-10T06:08:18;22.80;99.90
15906;DHT22;8051;50.820;4.884;2023-06-10T06:10:45;22.90;99.90
15906;DHT22;8051;50.820;4.884;2023-06-10T06:13:15;22.90;99.90
15906;DHT22;8051;50.820;4.884;2023-06-10T06:15:42;22.90;99.90
15906;DHT22;8051;50.820;4.884;2023-06-10T06:18:10;22.70;99.90
15906;DHT22;8051;50.820;4.884;2023-06-10T06:20:37;22.80;99.90
15906;DHT22;8051;50.820;4.884;2023-06-10T06:23:05;22.90;99.90
15906;DHT22;8051;50.820;4.884;2023-06-10T06:25:34;22.80;99.90
15906;DHT22;8051;50.820;4.884;2023-06-10T06:28:02;22.60;99.90
15906;DHT22;8051;50.820;4.884;2023-06-10T06:30:31;22.50;99.90
15906;DHT22;8051;50.820;4.884;2023-06-10T06:32:58;22.50;99.90
15906;DHT22;8051;50.820;4.884;2023-06-10T06:35:26;22.50;99.90
15906;DHT22;8051;50.820;4.884;2023-06-10T06:37:53;22.50;99.90
15906;DHT22;8051;50.820;4.884;2023-06-10T06:40:21;22.70;99.90
15906;DHT22;8051;50.820;4.884;2023-06-10T06:42:48;22.80;99.90
15906;DHT22;8051;50.820;4.884;2023-06-10T06:45:16;23.00;99.90
15906;DHT22;8051;50.820;4.884;2023-06-10T06:47:45;23.20;99.90
15906;DHT22;8051;50.820;4.884;2023-06-10T06:50:12;23.20;99.90
15906;DHT22;8051;50.820;4.884;2023-06-10T06:52:40;23.30;99.90
15906;DHT22;8051;50.820;4.884;2023-06-10T06:55:08;23.40;99.90
15906;DHT22;8051;50.820;4.884;2023-06-10T06:57:35;23.50;99.90
15906;DHT22;8051;50.820;4.884;2023-06-10T07:00:04;23.70;99.90
15906;DHT22;8051;50.820;4.884;2023-06-10T07:02:32;23.80;99.90
15906;DHT22;8051;50.820;4.884;2023-06-10T07:05:01;23.70;99.90
15906;DHT22;8051;50.820;4.884;2023-06-10T07:07:29;23.70;99.90
15906;DHT22;8051;50.820;4.884;2023-06-10T07:09:56;23.70;99.90
15906;DHT22;8051;50.820;4.884;2023-06-10T07:12:24;23.70;99.90
15906;DHT22;8051;50.820;4.884;2023-06-10T07:14:51;23.80;99.90
15906;DHT22;8051;50.820;4.884;2023-06-10T07:17:19;23.80;99.90
15906;DHT22;8051;50.820;4.884;2023-06-10T07:19:46;24.00;99.90
15906;DHT22;8051;50.820;4.884;2023-06-10T07:22:15;24.10;99.90
15906;DHT22;8051;50.820;4.884;2023-06-10T07:24:42;24.20;99.90
15906;DHT22;8051;50.820;4.884;2023-06-10T07:27:10;24.30;99.90
15906;DHT22;8051;50.820;4.884;2023-06-10T07:29:37;24.50;99.90
15906;DHT22;8051;50.820;4.884;2023-06-10T07:32:06;24.50;99.90
15906;DHT22;8051;50.820;4.884;2023-06-10T07:34:33;24.50;99.90
15906;DHT22;8051;50.820;4.884;2023-06-10T07:37:00;24.50;99.90
15906;DHT22;8051;50.820;4.884;2023-06-10T07:39:29;24.50;99.90
15906;DHT22;8051;50.820;4.884;2023-06-10T07:41:56;24.60;99.90
15906;DHT22;8051;50.820;4.884;2023-06-10T07:44:24;24.60;99.90
15906;DHT22;8051;50.820;4.884;2023-06-10T07:46:51;24.80;99.90
15906;DHT22;8051;50.820;4.884;2023-06-10T07:49:20;25.00;99.90
15906;DHT22;8051;50.820;4.884;2023-06-10T07:51:47;25.10;99.90
15906;DHT22;8051;50.820;4.884;2023-06-10T07:54:15;25.10;99.90
15906;DHT22;8051;50.820;4.884;2023-06-10T07:56:43;25.20;99.90
15906;DHT22;8051;50.820;4.884;2023-06-10T07:59:11;25.40;99.90
15906;DHT22;8051;50.820;4.884;2023-06-10T08:01:38;25.30;99.90
15906;DHT22;8051;50.820;4.884;2023-06-10T08:04:06;25.40;99.90
15906;DHT22;8051;50.820;4.884;2023-06-10T08:06:34;25.30;99.90
15906;DHT22;8051;50.820;4.884;2023-06-10T08:09:03;25.40;99.90
15906;DHT22;8051;50.820;4.884;2023-06-10T08:11:30;25.60;99.90
15906;DHT22;8051;50.820;4.884;2023-06-10T08:13:59;25.70;99.90
15906;DHT22;8051;50.820;4.884;2023-06-10T08:16:27;25.90;99.90
15906;DHT22;8051;50.820;4.884;2023-06-10T08:18:54;26.00;99.90
15906;DHT22;8051;50.820;4.884;2023-06-10T08:21:22;26.10;99.90
15906;DHT22;8051;50.820;4.884;2023-06-10T08:23:52;26.00;99.90
15906;DHT22;8051;50.820;4.884;2023-06-10T08:26:20;26.00;99.90
15906;DHT22;8051;50.820;4.884;2023-06-10T08:28:48;26.20;99.90
15906;DHT22;8051;50.820;4.884;2023-06-10T08:31:17;26.30;99.90
15906;DHT22;8051;50.820;4.884;2023-06-10T08:33:45;26.30;99.90
15906;DHT22;8051;50.820;4.884;2023-06-10T08:36:12;26.30;99.90
15906;DHT22;8051;50.820;4.884;2023-06-10T08:38:40;26.40;99.90
15906;DHT22;8051;50.820;4.884;2023-06-10T08:41:08;26.50;99.90
15906;DHT22;8051;50.820;4.884;2023-06-10T08:43:41;26.40;99.90
15906;DHT22;8051;50.820;4.884;2023-06-10T08:46:09;26.40;99.90
15906;DHT22;8051;50.820;4.884;2023-06-10T08:48:42;26.40;99.90
15906;DHT22;8051;50.820;4.884;2023-06-10T08:51:10;26.50;99.90
15906;DHT22;8051;50.820;4.884;2023-06-10T08:53:44;26.50;99.90
15906;DHT22;8051;50.820;4.884;2023-06-10T08:56:15;26.50;99.90
15906;DHT22;8051;50.820;4.884;2023-06-10T08:58:43;26.70;99.90
15906;DHT22;8051;50.820;4.884;2023-06-10T09:01:11;26.90;99.90
15906;DHT22;8051;50.820;4.884;2023-06-10T09:03:41;26.80;99.90
15906;DHT22;8051;50.820;4.884;2023-06-10T09:06:09;26.80;99.90
15906;DHT22;8051;50.820;4.884;2023-06-10T09:08:37;26.90;99.90
15906;DHT22;8051;50.820;4.884;2023-06-10T09:11:04;27.00;99.90
15906;DHT22;8051;50.820;4.884;2023-06-10T09:13:32;27.20;99.90
15906;DHT22;8051;50.820;4.884;2023-06-10T09:15:59;27.20;99.90
15906;DHT22;8051;50.820;4.884;2023-06-10T09:18:28;27.20;99.90
15906;DHT22;8051;50.820;4.884;2023-06-10T09:20:57;27.10;99.90
15906;DHT22;8051;50.820;4.884;2023-06-10T09:23:25;27.00;99.90
15906;DHT22;8051;50.820;4.884;2023-06-10T09:25:57;27.10;99.90
15906;DHT22;8051;50.820;4.884;2023-06-10T09:28:25;27.10;99.90
15906;DHT22;8051;50.820;4.884;2023-06-10T09:31:03;27.20;99.90
15906;DHT22;8051;50.820;4.884;2023-06-10T09:33:31;27.30;99.90
15906;DHT22;8051;50.820;4.884;2023-06-10T09:36:02;27.50;99.90
15906;DHT22;8051;50.820;4.884;2023-06-10T09:38:33;27.60;99.90
15906;DHT22;8051;50.820;4.884;2023-06-10T09:41:02;27.60;99.90
15906;DHT22;8051;50.820;4.884;2023-06-10T09:43:40;27.60;99.90
15906;DHT22;8051;50.820;4.884;2023-06-10T09:46:14;27.50;99.90
15906;DHT22;8051;50.820;4.884;2023-06-10T09:48:42;27.70;99.90
15906;DHT22;8051;50.820;4.884;2023-06-10T09:51:12;27.90;99.90
15906;DHT22;8051;50.820;4.884;2023-06-10T09:53:40;27.90;99.90
15906;DHT22;8051;50.820;4.884;2023-06-10T09:56:07;28.00;99.90
15906;DHT22;8051;50.820;4.884;2023-06-10T09:58:36;27.90;99.90
15906;DHT22;8051;50.820;4.884;2023-06-10T10:01:08;27.90;99.90
15906;DHT22;8051;50.820;4.884;2023-06-10T10:03:43;27.90;99.90
15906;DHT22;8051;50.820;4.884;2023-06-10T10:06:14;27.90;99.90
15906;DHT22;8051;50.820;4.884;2023-06-10T10:08:42;28.00;99.90
15906;DHT22;8051;50.820;4.884;2023-06-10T10:11:10;28.20;99.90
15906;DHT22;8051;50.820;4.884;2023-06-10T10:13:38;28.40;99.90
15906;DHT22;8051;50.820;4.884;2023-06-10T10:16:11;28.50;99.90
15906;DHT22;8051;50.820;4.884;2023-06-10T10:18:41;28.60;99.90
15906;DHT22;8051;50.820;4.884;2023-06-10T10:21:13;28.60;99.90
15906;DHT22;8051;50.820;4.884;2023-06-10T10:23:48;28.50;99.90
15906;DHT22;8051;50.820;4.884;2023-06-10T10:26:21;28.30;99.90
15906;DHT22;8051;50.820;4.884;2023-06-10T10:28:58;28.40;99.90
15906;DHT22;8051;50.820;4.884;2023-06-10T10:31:30;28.50;99.90
15906;DHT22;8051;50.820;4.884;2023-06-10T10:34:01;28.60;99.90
15906;DHT22;8051;50.820;4.884;2023-06-10T10:36:31;28.70;99.90
15906;DHT22;8051;50.820;4.884;2023-06-10T10:38:59;28.80;99.90
15906;DHT22;8051;50.820;4.884;2023-06-10T10:41:30;28.90;99.90
15906;DHT22;8051;50.820;4.884;2023-06-10T10:43:58;29.10;99.90
15906;DHT22;8051;50.820;4.884;2023-06-10T10:46:27;29.40;99.90
15906;DHT22;8051;50.820;4.884;2023-06-10T10:48:55;29.50;99.90
15906;DHT22;8051;50.820;4.884;2023-06-10T10:51:23;29.60;99.90
15906;DHT22;8051;50.820;4.884;2023-06-10T10:54:11;29.40;99.90
15906;DHT22;8051;50.820;4.884;2023-06-10T10:56:40;29.30;99.90
15906;DHT22;8051;50.820;4.884;2023-06-10T10:59:43;29.10;99.90
15906;DHT22;8051;50.820;4.884;2023-06-10T11:02:15;29.20;99.90
15906;DHT22;8051;50.820;4.884;2023-06-10T11:04:48;29.30;99.90
15906;DHT22;8051;50.820;4.884;2023-06-10T11:07:20;29.30;99.90
15906;DHT22;8051;50.820;4.884;2023-06-10T11:10:02;29.30;99.90
15906;DHT22;8051;50.820;4.884;2023-06-10T11:12:42;29.30;99.90
15906;DHT22;8051;50.820;4.884;2023-06-10T11:15:10;29.40;99.90
15906;DHT22;8051;50.820;4.884;2023-06-10T11:17:37;29.50;99.90
15906;DHT22;8051;50.820;4.884;2023-06-10T11:20:05;29.50;99.90
15906;DHT22;8051;50.820;4.884;2023-06-10T11:22:42;29.60;99.90
15906;DHT22;8051;50.820;4.884;2023-06-10T11:25:38;29.50;99.90
15906;DHT22;8051;50.820;4.884;2023-06-10T11:28:17;29.60;99.90
15906;DHT22;8051;50.820;4.884;2023-06-10T11:30:46;29.60;99.90
15906;DHT22;8051;50.820;4.884;2023-06-10T11:33:24;29.70;99.90
15906;DHT22;8051;50.820;4.884;2023-06-10T11:35:52;29.80;99.90
15906;DHT22;8051;50.820;4.884;2023-06-10T11:38:19;29.90;99.90
15906;DHT22;8051;50.820;4.884;2023-06-10T11:40:49;29.90;99.90
15906;DHT22;8051;50.820;4.884;2023-06-10T11:43:17;30.00;99.90
15906;DHT22;8051;50.820;4.884;2023-06-10T11:45:45;30.10;99.90
15906;DHT22;8051;50.820;4.884;2023-06-10T11:48:13;30.10;99.20
15906;DHT22;8051;50.820;4.884;2023-06-10T11:50:40;30.00;99.30
15906;DHT22;8051;50.820;4.884;2023-06-10T11:53:08;30.10;99.50
15906;DHT22;8051;50.820;4.884;2023-06-10T11:55:44;30.20;99.90
15906;DHT22;8051;50.820;4.884;2023-06-10T11:58:17;30.40;99.80
15906;DHT22;8051;50.820;4.884;2023-06-10T12:00:46;30.50;99.90
15906;DHT22;8051;50.820;4.884;2023-06-10T12:03:13;30.80;99.60
15906;DHT22;8051;50.820;4.884;2023-06-10T12:05:56;30.70;98.40
15906;DHT22;8051;50.820;4.884;2023-06-10T12:08:24;30.70;98.50
15906;DHT22;8051;50.820;4.884;2023-06-10T12:10:52;30.60;97.70
15906;DHT22;8051;50.820;4.884;2023-06-10T12:13:21;30.50;97.30
15906;DHT22;8051;50.820;4.884;2023-06-10T12:15:50;30.50;97.80
15906;DHT22;8051;50.820;4.884;2023-06-10T12:18:17;30.50;97.30
15906;DHT22;8051;50.820;4.884;2023-06-10T12:20:45;30.60;97.40
15906;DHT22;8051;50.820;4.884;2023-06-10T12:23:14;30.70;96.40
15906;DHT22;8051;50.820;4.884;2023-06-10T12:25:50;30.70;97.30
15906;DHT22;8051;50.820;4.884;2023-06-10T12:28:22;30.90;97.40
15906;DHT22;8051;50.820;4.884;2023-06-10T12:30:50;30.80;96.10
15906;DHT22;8051;50.820;4.884;2023-06-10T12:33:18;30.80;95.40
15906;DHT22;8051;50.820;4.884;2023-06-10T12:35:49;30.80;96.30
15906;DHT22;8051;50.820;4.884;2023-06-10T12:38:21;30.90;95.60
15906;DHT22;8051;50.820;4.884;2023-06-10T12:40:50;30.70;95.80
15906;DHT22;8051;50.820;4.884;2023-06-10T12:43:23;30.80;96.30
15906;DHT22;8051;50.820;4.884;2023-06-10T12:45:50;30.70;95.30
15906;DHT22;8051;50.820;4.884;2023-06-10T12:48:19;30.60;95.10
15906;DHT22;8051;50.820;4.884;2023-06-10T12:50:51;30.50;95.70
15906;DHT22;8051;50.820;4.884;2023-06-10T12:53:20;30.60;95.60
15906;DHT22;8051;50.820;4.884;2023-06-10T12:55:49;30.80;95.60
15906;DHT22;8051;50.820;4.884;2023-06-10T12:58:16;30.90;96.10
15906;DHT22;8051;50.820;4.884;2023-06-10T13:00:45;31.00;95.80
15906;DHT22;8051;50.820;4.884;2023-06-10T13:03:14;31.00;94.80
15906;DHT22;8051;50.820;4.884;2023-06-10T13:05:42;31.00;95.40
15906;DHT22;8051;50.820;4.884;2023-06-10T13:08:09;31.00;94.80
15906;DHT22;8051;50.820;4.884;2023-06-10T13:10:37;30.90;94.80
15906;DHT22;8051;50.820;4.884;2023-06-10T13:13:05;30.80;94.60
15906;DHT22;8051;50.820;4.884;2023-06-10T13:15:34;30.60;94.80
15906;DHT22;8051;50.820;4.884;2023-06-10T13:18:04;30.60;95.50
15906;DHT22;8051;50.820;4.884;2023-06-10T13:20:31;30.70;95.70
15906;DHT22;8051;50.820;4.884;2023-06-10T13:22:59;30.80;96.00
15906;DHT22;8051;50.820;4.884;2023-06-10T13:25:27;30.70;94.70
15906;DHT22;8051;50.820;4.884;2023-06-10T13:27:54;30.70;95.20
15906;DHT22;8051;50.820;4.884;2023-06-10T13:30:22;30.60;94.50
15906;DHT22;8051;50.820;4.884;2023-06-10T13:32:49;30.50;94.30
15906;DHT22;8051;50.820;4.884;2023-06-10T13:35:18;30.60;95.00
15906;DHT22;8051;50.820;4.884;2023-06-10T13:37:46;30.90;95.60
15906;DHT22;8051;50.820;4.884;2023-06-10T13:40:13;31.20;95.40
15906;DHT22;8051;50.820;4.884;2023-06-10T13:42:41;31.30;95.00
15906;DHT22;8051;50.820;4.884;2023-06-10T13:45:09;31.30;95.00
15906;DHT22;8051;50.820;4.884;2023-06-10T13:47:37;31.20;93.80
15906;DHT22;8051;50.820;4.884;2023-06-10T13:50:06;31.20;94.10
15906;DHT22;8051;50.820;4.884;2023-06-10T13:52:35;31.30;93.40
15906;DHT22;8051;50.820;4.884;2023-06-10T13:55:03;31.40;93.30
15906;DHT22;8051;50.820;4.884;2023-06-10T13:57:30;31.30;93.70
15906;DHT22;8051;50.820;4.884;2023-06-10T14:00:04;31.20;93.50
15906;DHT22;8051;50.820;4.884;2023-06-10T14:02:32;31.40;93.80
15906;DHT22;8051;50.820;4.884;2023-06-10T14:05:00;31.70;93.30
15906;DHT22;8051;50.820;4.884;2023-06-10T14:07:28;31.60;92.60
15906;DHT22;8051;50.820;4.884;2023-06-10T14:09:57;31.40;92.40
15906;DHT22;8051;50.820;4.884;2023-06-10T14:12:25;31.00;93.40
15906;DHT22;8051;50.820;4.884;2023-06-10T14:14:52;31.30;93.20
15906;DHT22;8051;50.820;4.884;2023-06-10T14:17:20;31.40;92.40
15906;DHT22;8051;50.820;4.884;2023-06-10T14:19:49;31.30;92.20
15906;DHT22;8051;50.820;4.884;2023-06-10T14:22:16;31.30;92.40
15906;DHT22;8051;50.820;4.884;2023-06-10T14:24:44;31.30;93.40
15906;DHT22;8051;50.820;4.884;2023-06-10T14:27:14;31.60;93.60
15906;DHT22;8051;50.820;4.884;2023-06-10T14:29:42;31.60;92.40
15906;DHT22;8051;50.820;4.884;2023-06-10T14:32:09;31.50;92.90
15906;DHT22;8051;50.820;4.884;2023-06-10T14:34:37;31.80;93.60
15906;DHT22;8051;50.820;4.884;2023-06-10T14:37:05;32.10;92.90
15906;DHT22;8051;50.820;4.884;2023-06-10T14:39:34;32.10;93.80
15906;DHT22;8051;50.820;4.884;2023-06-10T14:42:01;32.40;93.60
15906;DHT22;8051;50.820;4.884;2023-06-10T14:44:30;32.20;92.70
15906;DHT22;8051;50.820;4.884;2023-06-10T14:46:58;32.30;92.90
15906;DHT22;8051;50.820;4.884;2023-06-10T14:49:25;32.50;93.80
15906;DHT22;8051;50.820;4.884;2023-06-10T14:51:53;32.50;93.20
15906;DHT22;8051;50.820;4.884;2023-06-10T14:54:20;32.20;92.30
15906;DHT22;8051;50.820;4.884;2023-06-10T14:56:48;32.00;92.70
15906;DHT22;8051;50.820;4.884;2023-06-10T14:59:15;32.00;92.60
15906;DHT22;8051;50.820;4.884;2023-06-10T15:01:44;32.00;93.00
15906;DHT22;8051;50.820;4.884;2023-06-10T15:04:11;32.10;93.30
15906;DHT22;8051;50.820;4.884;2023-06-10T15:06:39;32.30;92.70
15906;DHT22;8051;50.820;4.884;2023-06-10T15:09:07;32.50;93.20
15906;DHT22;8051;50.820;4.884;2023-06-10T15:11:35;32.10;91.70
15906;DHT22;8051;50.820;4.884;2023-06-10T15:14:03;32.00;92.60
15906;DHT22;8051;50.820;4.884;2023-06-10T15:16:31;32.00;92.60
15906;DHT22;8051;50.820;4.884;2023-06-10T15:19:00;31.90;91.90
15906;DHT22;8051;50.820;4.884;2023-06-10T15:21:27;31.70;91.90
15906;DHT22;8051;50.820;4.884;2023-06-10T15:23:55;32.00;92.90
15906;DHT22;8051;50.820;4.884;2023-06-10T15:26:22;32.20;92.50
15906;DHT22;8051;50.820;4.884;2023-06-10T15:28:50;32.50;92.40
15906;DHT22;8051;50.820;4.884;2023-06-10T15:31:17;33.00;92.30
15906;DHT22;8051;50.820;4.884;2023-06-10T15:33:45;32.90;92.20
15906;DHT22;8051;50.820;4.884;2023-06-10T15:36:13;33.80;91.00
15906;DHT22;8051;50.820;4.884;2023-06-10T15:38:41;36.10;90.10
15906;DHT22;8051;50.820;4.884;2023-06-10T15:41:08;38.60;88.60
15906;DHT22;8051;50.820;4.884;2023-06-10T15:43:36;40.00;86.70
15906;DHT22;8051;50.820;4.884;2023-06-10T15:46:03;39.80;82.80
15906;DHT22;8051;50.820;4.884;2023-06-10T15:48:30;39.90;80.80
15906;DHT22;8051;50.820;4.884;2023-06-10T15:50:58;40.30;81.10
15906;DHT22;8051;50.820;4.884;2023-06-10T15:53:27;40.20;80.80
15906;DHT22;8051;50.820;4.884;2023-06-10T15:55:54;40.80;80.00